createdAt,value
2023-12-02T00:02:16.968Z,28.08
2023-12-02T00:04:43.387Z,27.60
2023-12-02T00:07:10.221Z,24.42
2023-12-02T00:09:36.650Z,25.20
2023-12-02T00:12:03.757Z,22.75
2023-12-02T00:14:30.202Z,23.20
2023-12-02T00:16:57.369Z,22.63
2023-12-02T00:19:23.824Z,21.83
2023-12-02T00:21:51.180Z,22.13
2023-12-02T00:24:17.702Z,21.27
2023-12-02T00:26:44.104Z,23.00
2023-12-02T00:29:10.516Z,22.35
2023-12-02T00:31:36.913Z,22.85
2023-12-02T00:34:03.994Z,26.08
2023-12-02T00:36:32.445Z,23.25
2023-12-02T00:38:58.839Z,24.40
2023-12-02T00:41:25.347Z,24.88
2023-12-02T00:43:51.724Z,26.65
2023-12-02T00:46:18.065Z,28.80
2023-12-02T00:48:44.524Z,28.45
2023-12-02T00:51:11.613Z,25.98
2023-12-02T00:53:37.962Z,26.08
2023-12-02T00:56:05.217Z,26.00
2023-12-02T00:58:38.465Z,25.95
2023-12-02T01:01:08.614Z,22.90
2023-12-02T01:03:35.032Z,23.75
2023-12-02T01:06:01.524Z,24.90
2023-12-02T01:08:28.578Z,22.48
2023-12-02T01:10:54.974Z,26.10
2023-12-02T01:13:21.339Z,26.15
2023-12-02T01:15:48.197Z,24.98
2023-12-02T01:18:14.635Z,24.65
2023-12-02T01:20:40.982Z,31.25
2023-12-02T01:23:07.355Z,26.38
2023-12-02T01:25:34.379Z,25.60
2023-12-02T01:28:00.735Z,27.70
2023-12-02T01:30:27.980Z,28.73
2023-12-02T01:32:54.496Z,26.63
2023-12-02T01:35:21.131Z,27.85
2023-12-02T01:37:47.535Z,28.75
2023-12-02T01:40:14.226Z,32.03
2023-12-02T01:42:41.214Z,30.17
2023-12-02T01:45:08.691Z,31.80
2023-12-02T01:47:35.119Z,29.67
2023-12-02T01:50:03.338Z,27.55
2023-12-02T01:52:29.847Z,29.70
2023-12-02T01:54:56.385Z,32.47
2023-12-02T01:57:23.311Z,29.02
2023-12-02T01:59:54.629Z,30.45
2023-12-02T02:02:21.447Z,30.10
2023-12-02T02:04:49.015Z,31.10
2023-12-02T02:07:15.539Z,27.02
2023-12-02T02:09:46.362Z,28.98
2023-12-02T02:12:13.062Z,29.08
2023-12-02T02:14:39.443Z,27.88
2023-12-02T02:17:06.608Z,28.98
2023-12-02T02:19:33.300Z,32.17
2023-12-02T02:22:00.509Z,30.92
2023-12-02T02:24:26.942Z,31.38
2023-12-02T02:26:53.371Z,30.80
2023-12-02T02:29:19.823Z,31.33
2023-12-02T02:31:46.204Z,26.38
2023-12-02T02:34:12.933Z,31.23
2023-12-02T02:36:39.278Z,30.33
2023-12-02T02:39:07.961Z,32.72
2023-12-02T02:41:34.815Z,29.30
2023-12-02T02:44:01.913Z,32.45
2023-12-02T02:46:28.295Z,30.85
2023-12-02T02:48:54.719Z,30.85
2023-12-02T02:51:21.191Z,32.15
2023-12-02T02:53:47.556Z,34.42
2023-12-02T02:56:14.579Z,32.00
2023-12-02T02:58:41.036Z,32.25
2023-12-02T03:01:07.569Z,30.40
2023-12-02T03:03:34.295Z,31.50
2023-12-02T03:06:00.740Z,30.90
2023-12-02T03:08:27.127Z,32.53
2023-12-02T03:10:53.712Z,30.20
2023-12-02T03:13:20.713Z,29.10
2023-12-02T03:15:47.067Z,28.35
2023-12-02T03:18:13.542Z,31.40
2023-12-02T03:20:40.035Z,29.95
2023-12-02T03:23:06.500Z,28.48
2023-12-02T03:25:32.848Z,33.08
2023-12-02T03:27:59.189Z,28.15
2023-12-02T03:30:26.228Z,29.23
2023-12-02T03:32:52.696Z,30.75
2023-12-02T03:35:19.150Z,30.65
2023-12-02T03:37:46.547Z,30.90
2023-12-02T03:40:13.688Z,32.22
2023-12-02T03:42:40.147Z,30.92
2023-12-02T03:45:07.257Z,30.33
2023-12-02T03:47:34.503Z,32.35
2023-12-02T03:50:00.860Z,31.98
2023-12-02T03:52:27.217Z,29.83
2023-12-02T03:54:53.523Z,32.42
2023-12-02T03:57:20.132Z,30.25
2023-12-02T03:59:46.489Z,27.45
2023-12-02T04:02:12.813Z,33.92
2023-12-02T04:04:39.893Z,33.13
2023-12-02T04:07:06.341Z,30.50
2023-12-02T04:09:32.838Z,31.05
2023-12-02T04:11:59.238Z,31.83
2023-12-02T04:14:25.634Z,31.20
2023-12-02T04:16:51.957Z,31.63
2023-12-02T04:19:18.452Z,33.20
2023-12-02T04:21:46.446Z,29.73
2023-12-02T04:24:12.853Z,30.70
2023-12-02T04:26:39.238Z,30.25
2023-12-02T04:29:05.625Z,28.13
2023-12-02T04:31:32.569Z,30.98
2023-12-02T04:33:59.507Z,30.75
2023-12-02T04:36:25.994Z,33.17
2023-12-02T04:38:53.059Z,28.58
2023-12-02T04:41:19.640Z,32.17
2023-12-02T04:43:46.048Z,30.67
2023-12-02T04:46:12.427Z,32.03
2023-12-02T04:48:38.945Z,32.58
2023-12-02T04:51:05.630Z,30.40
2023-12-02T04:53:32.001Z,34.85
2023-12-02T04:55:59.020Z,32.45
2023-12-02T04:58:25.526Z,31.67
2023-12-02T05:00:51.955Z,33.63
2023-12-02T05:03:18.573Z,35.40
2023-12-02T05:05:45.287Z,32.85
2023-12-02T05:08:11.881Z,34.92
2023-12-02T05:10:39.054Z,32.60
2023-12-02T05:13:07.160Z,35.58
2023-12-02T05:15:33.558Z,34.22
2023-12-02T05:17:59.988Z,35.13
2023-12-02T05:20:26.410Z,35.92
2023-12-02T05:22:52.756Z,36.35
2023-12-02T05:25:19.099Z,36.53
2023-12-02T05:27:45.557Z,38.60
2023-12-02T05:30:13.588Z,36.90
2023-12-02T05:32:40.044Z,35.80
2023-12-02T05:35:09.255Z,38.88
2023-12-02T05:37:37.079Z,39.22
2023-12-02T05:40:04.877Z,39.88
2023-12-02T05:42:31.257Z,41.50
2023-12-02T05:44:57.706Z,39.85
2023-12-02T05:47:24.725Z,41.95
2023-12-02T05:49:51.117Z,44.03
2023-12-02T05:52:17.516Z,43.28
2023-12-02T05:54:43.994Z,44.55
2023-12-02T05:57:11.138Z,42.03
2023-12-02T05:59:38.863Z,46.85
2023-12-02T06:02:05.280Z,42.70
2023-12-02T06:04:32.394Z,42.50
2023-12-02T06:06:59.545Z,43.78
2023-12-02T06:09:26.009Z,45.97
2023-12-02T06:11:52.674Z,43.30
2023-12-02T06:14:19.330Z,41.10
2023-12-02T06:16:45.666Z,44.42
2023-12-02T06:19:12.481Z,42.65
2023-12-02T06:21:40.326Z,45.80
2023-12-02T06:24:07.557Z,44.05
2023-12-02T06:26:34.031Z,44.38
2023-12-02T06:29:00.402Z,43.75
2023-12-02T06:31:29.971Z,42.40
2023-12-02T06:33:56.403Z,41.15
2023-12-02T06:36:22.915Z,41.90
2023-12-02T06:38:49.965Z,38.85
2023-12-02T06:41:16.342Z,42.47
2023-12-02T06:43:42.705Z,41.30
2023-12-02T06:46:09.822Z,39.22
2023-12-02T06:48:36.307Z,39.83
2023-12-02T06:51:02.752Z,40.15
2023-12-02T06:53:29.135Z,40.97
2023-12-02T06:55:56.220Z,39.33
2023-12-02T06:58:22.657Z,46.78
2023-12-02T07:00:49.575Z,43.28
2023-12-02T07:03:16.197Z,48.38
2023-12-02T07:05:42.640Z,40.53
2023-12-02T07:08:09.001Z,43.30
2023-12-02T07:10:35.345Z,42.53
2023-12-02T07:13:03.076Z,41.78
2023-12-02T07:15:29.523Z,41.97
2023-12-02T07:17:55.965Z,42.70
2023-12-02T07:20:22.452Z,42.63
2023-12-02T07:22:48.786Z,39.88
2023-12-02T07:25:15.153Z,46.33
2023-12-02T07:27:41.697Z,44.60
2023-12-02T07:32:39.316Z,42.67
2023-12-02T07:35:07.064Z,35.92
2023-12-02T07:37:33.476Z,42.05
2023-12-02T07:39:59.874Z,46.80
2023-12-02T07:42:26.323Z,47.08
2023-12-02T07:44:52.697Z,44.75
2023-12-02T07:47:19.935Z,44.25
2023-12-02T07:49:46.378Z,84.85
2023-12-02T07:52:12.852Z,101.20
2023-12-02T07:54:39.251Z,39.35
2023-12-02T07:57:05.906Z,48.75
2023-12-02T07:59:32.212Z,38.60
2023-12-02T08:01:58.783Z,61.88
2023-12-02T08:04:26.240Z,43.80
2023-12-02T08:06:52.660Z,82.20
2023-12-02T08:09:19.054Z,65.82
2023-12-02T08:11:45.511Z,71.32
2023-12-02T08:14:12.072Z,40.20
2023-12-02T08:16:38.542Z,51.75
2023-12-02T08:19:04.956Z,47.30
2023-12-02T08:21:32.079Z,37.15
2023-12-02T08:23:58.847Z,37.80
2023-12-02T08:26:25.455Z,36.67
2023-12-02T08:28:51.874Z,37.08
2023-12-02T08:31:18.403Z,38.95
2023-12-02T08:33:44.906Z,36.30
2023-12-02T08:36:11.740Z,40.65
2023-12-02T08:38:38.768Z,37.50
2023-12-02T08:41:05.584Z,37.60
2023-12-02T08:43:32.156Z,35.20
2023-12-02T08:45:58.662Z,34.63
2023-12-02T08:48:25.186Z,35.53
2023-12-02T08:50:51.705Z,32.33
2023-12-02T08:53:18.134Z,34.30
2023-12-02T08:55:45.314Z,33.55
2023-12-02T08:58:11.775Z,33.28
2023-12-02T09:00:38.273Z,33.22
2023-12-02T09:03:05.097Z,33.33
2023-12-02T09:05:31.840Z,33.63
2023-12-02T09:08:01.722Z,32.97
2023-12-02T09:10:28.217Z,34.35
2023-12-02T09:12:55.461Z,37.40
2023-12-02T09:15:39.838Z,36.47
2023-12-02T09:18:13.801Z,36.95
2023-12-02T09:20:46.279Z,37.45
2023-12-02T09:23:14.202Z,36.55
2023-12-02T09:25:42.295Z,35.65
2023-12-02T09:28:27.595Z,35.60
2023-12-02T09:31:08.091Z,34.55
2023-12-02T09:33:37.018Z,36.83
2023-12-02T09:36:04.488Z,37.45
2023-12-02T09:38:33.028Z,36.50
2023-12-02T09:41:18.543Z,38.72
2023-12-02T09:43:59.446Z,40.42
2023-12-02T09:46:32.255Z,35.67
2023-12-02T09:49:48.159Z,34.05
2023-12-02T09:52:32.913Z,34.50
2023-12-02T09:55:10.120Z,38.10
2023-12-02T09:57:46.692Z,36.83
2023-12-02T10:00:22.404Z,37.83
2023-12-02T10:03:19.367Z,36.85
2023-12-02T10:05:58.953Z,33.45
2023-12-02T10:08:35.137Z,33.60
2023-12-02T10:11:05.343Z,34.78
2023-12-02T10:13:43.838Z,36.47
2023-12-02T10:16:15.277Z,39.97
2023-12-02T10:18:48.688Z,39.88
2023-12-02T10:21:19.168Z,36.55
2023-12-02T10:23:55.625Z,33.05
2023-12-02T10:26:26.349Z,35.55
2023-12-02T10:29:08.264Z,34.22
2023-12-02T10:31:49.308Z,36.42
2023-12-02T10:34:23.231Z,41.42
2023-12-02T10:36:53.593Z,41.65
2023-12-02T10:39:35.883Z,47.90
2023-12-02T10:42:04.033Z,43.45
2023-12-02T10:44:32.452Z,39.42
2023-12-02T10:47:00.554Z,36.88
2023-12-02T10:49:29.040Z,34.03
2023-12-02T10:54:33.140Z,37.78
2023-12-02T10:57:06.406Z,33.60
2023-12-02T10:59:36.149Z,34.45
2023-12-02T11:02:23.970Z,32.10
2023-12-02T11:04:57.359Z,37.10
2023-12-02T11:07:26.714Z,35.33
2023-12-02T11:10:00.416Z,36.65
2023-12-02T11:12:33.103Z,36.08
2023-12-02T11:15:16.595Z,33.92
2023-12-02T11:17:54.013Z,35.83
2023-12-02T11:20:27.108Z,37.83
2023-12-02T11:23:21.517Z,35.95
2023-12-02T11:26:06.997Z,33.88
2023-12-02T11:28:41.337Z,35.45
2023-12-02T11:31:20.278Z,33.27
2023-12-02T11:34:00.942Z,31.70
2023-12-02T11:36:37.047Z,33.17
2023-12-02T11:39:10.630Z,32.97
2023-12-02T11:41:45.933Z,35.83
2023-12-02T11:47:02.604Z,30.02
2023-12-02T11:49:37.025Z,33.10
2023-12-02T11:52:13.012Z,32.70
2023-12-02T11:54:58.264Z,31.40
2023-12-02T11:57:33.714Z,30.30
2023-12-02T12:00:10.137Z,31.77
2023-12-02T12:03:04.224Z,35.78
2023-12-02T12:05:41.573Z,32.42
2023-12-02T12:08:13.456Z,30.33
2023-12-02T12:10:41.249Z,33.10
2023-12-02T12:13:11.181Z,28.35
2023-12-02T12:15:38.620Z,31.30
2023-12-02T12:18:05.384Z,29.52
2023-12-02T12:20:32.309Z,31.13
2023-12-02T12:23:01.606Z,32.20
2023-12-02T12:25:31.042Z,31.85
2023-12-02T12:28:02.495Z,34.80
2023-12-02T12:30:41.765Z,34.92
2023-12-02T12:33:10.930Z,32.83
2023-12-02T12:35:37.584Z,34.60
2023-12-02T12:38:04.804Z,32.33
2023-12-02T12:40:35.852Z,34.78
2023-12-02T12:43:02.275Z,31.08
2023-12-02T12:45:28.855Z,32.78
2023-12-02T12:47:56.581Z,38.03
2023-12-02T12:50:23.644Z,37.20
2023-12-02T12:52:51.727Z,39.85
2023-12-02T12:55:21.315Z,36.80
2023-12-02T12:57:53.894Z,36.38
2023-12-02T13:00:20.869Z,37.78
2023-12-02T13:03:02.184Z,37.25
2023-12-02T13:05:35.326Z,36.65
2023-12-02T13:08:07.369Z,38.88
2023-12-02T13:10:35.814Z,38.15
2023-12-02T13:13:03.279Z,33.47
2023-12-02T13:15:31.833Z,36.42
2023-12-02T13:17:58.526Z,37.65
2023-12-02T13:20:28.647Z,35.85
2023-12-02T13:23:02.048Z,34.55
2023-12-02T13:25:29.878Z,36.08
2023-12-02T13:27:58.255Z,37.35
2023-12-02T13:30:25.433Z,38.42
2023-12-02T13:32:54.933Z,39.80
2023-12-02T13:35:27.530Z,37.25
2023-12-02T13:38:07.539Z,37.13
2023-12-02T13:40:38.896Z,40.80
2023-12-02T13:43:11.207Z,38.58
2023-12-02T13:45:39.993Z,41.58
2023-12-02T13:48:18.720Z,43.25
2023-12-02T13:50:54.421Z,40.90
2023-12-02T13:53:33.614Z,40.83
2023-12-02T13:56:19.987Z,41.47
2023-12-02T13:59:02.575Z,39.45
2023-12-02T14:01:32.621Z,42.17
2023-12-02T14:04:07.020Z,44.58
2023-12-02T14:06:58.315Z,41.25
2023-12-02T14:09:27.766Z,37.53
2023-12-02T14:12:09.984Z,41.38
2023-12-02T14:14:56.672Z,48.25
2023-12-02T14:17:41.162Z,42.53
2023-12-02T14:20:30.734Z,41.28
2023-12-02T14:23:20.642Z,41.53
2023-12-02T14:26:05.923Z,40.63
2023-12-02T14:28:46.281Z,44.35
2023-12-02T14:31:54.028Z,41.80
2023-12-02T14:34:49.305Z,37.47
2023-12-02T14:37:42.788Z,42.22
2023-12-02T14:40:25.349Z,43.83
2023-12-02T14:43:00.800Z,41.92
2023-12-02T14:45:31.896Z,43.10
2023-12-02T14:48:05.713Z,41.33
2023-12-02T14:50:32.370Z,38.25
2023-12-02T14:52:59.275Z,35.42
2023-12-02T14:55:28.606Z,39.08
2023-12-02T14:58:19.184Z,37.30
2023-12-02T15:00:50.223Z,36.30
2023-12-02T15:03:17.867Z,37.83
2023-12-02T15:05:46.806Z,35.17
2023-12-02T15:08:13.925Z,37.10
2023-12-02T15:10:42.459Z,35.72
2023-12-02T15:13:11.237Z,38.58
2023-12-02T15:15:38.714Z,33.58
2023-12-02T15:18:07.320Z,33.88
2023-12-02T15:20:35.490Z,34.72
2023-12-02T15:23:37.033Z,35.55
2023-12-02T15:26:04.304Z,33.60
2023-12-02T15:28:48.549Z,35.47
2023-12-02T15:31:29.717Z,35.92
2023-12-02T15:33:56.802Z,36.50
2023-12-02T15:36:25.471Z,36.13
2023-12-02T15:38:53.268Z,36.45
2023-12-02T15:41:21.145Z,38.10
2023-12-02T15:43:47.943Z,44.33
2023-12-02T15:46:14.514Z,40.15
2023-12-02T15:48:41.815Z,42.03
2023-12-02T15:51:09.269Z,50.00
2023-12-02T15:53:36.730Z,46.72
2023-12-02T15:56:04.115Z,45.40
2023-12-02T15:58:32.426Z,44.58
2023-12-02T16:01:00.384Z,45.10
2023-12-02T16:03:27.039Z,47.97
2023-12-02T16:05:54.488Z,48.05
2023-12-02T16:08:22.704Z,52.38
2023-12-02T16:10:59.557Z,51.75
2023-12-02T16:13:28.096Z,53.47
2023-12-02T16:15:54.702Z,51.63
2023-12-02T16:18:21.943Z,50.72
2023-12-02T16:20:48.691Z,48.22
2023-12-02T16:23:15.189Z,46.35
2023-12-02T16:25:41.601Z,42.80
2023-12-02T16:28:11.062Z,38.45
2023-12-02T16:30:37.497Z,37.42
2023-12-02T16:33:04.122Z,41.03
2023-12-02T16:35:30.656Z,43.20
2023-12-02T16:37:57.041Z,39.90
2023-12-02T16:40:24.304Z,40.17
2023-12-02T16:42:50.731Z,35.42
2023-12-02T16:45:21.422Z,34.53
2023-12-02T16:47:51.332Z,34.45
2023-12-02T16:50:24.054Z,34.58
2023-12-02T16:52:52.958Z,32.78
2023-12-02T16:55:19.653Z,28.45
2023-12-02T16:57:49.146Z,27.90
2023-12-02T17:00:19.010Z,24.60
2023-12-02T17:02:45.771Z,25.98
2023-12-02T17:05:58.760Z,25.67
2023-12-02T17:08:26.807Z,26.02
2023-12-02T17:10:59.338Z,26.23
2023-12-02T17:13:33.831Z,26.52
2023-12-02T17:16:00.893Z,27.13
2023-12-02T17:19:04.932Z,25.95
2023-12-02T17:21:47.961Z,30.13
2023-12-02T17:24:19.073Z,26.02
2023-12-02T17:26:45.909Z,27.30
2023-12-02T17:29:14.283Z,27.75
2023-12-02T17:31:41.561Z,27.90
2023-12-02T17:34:08.032Z,29.73
2023-12-02T17:36:35.754Z,32.88
2023-12-02T17:39:02.432Z,30.48
2023-12-02T17:41:29.059Z,29.60
2023-12-02T17:43:56.082Z,35.22
2023-12-02T17:46:24.511Z,56.70
2023-12-02T17:48:51.600Z,50.90
2023-12-02T17:51:18.057Z,34.60
2023-12-02T17:53:44.421Z,32.60
2023-12-02T17:56:11.742Z,40.22
2023-12-02T17:58:38.242Z,31.42
2023-12-02T18:01:05.276Z,34.58
2023-12-02T18:03:31.691Z,35.33
2023-12-02T18:05:58.762Z,38.42
2023-12-02T18:08:25.376Z,36.50
2023-12-02T18:10:51.850Z,40.50
2023-12-02T18:13:18.235Z,35.05
2023-12-02T18:15:44.900Z,40.30
2023-12-02T18:18:12.645Z,36.13
2023-12-02T18:20:42.589Z,37.20
2023-12-02T18:23:09.648Z,36.10
2023-12-02T18:25:36.011Z,37.58
2023-12-02T18:28:02.573Z,36.70
2023-12-02T18:30:29.644Z,37.80
2023-12-02T18:32:56.150Z,36.10
2023-12-02T18:35:22.520Z,35.97
2023-12-02T18:37:48.910Z,36.13
2023-12-02T18:40:16.214Z,39.08
2023-12-02T18:42:42.709Z,37.30
2023-12-02T18:45:09.759Z,42.22
2023-12-02T18:47:36.589Z,41.72
2023-12-02T18:50:03.086Z,45.30
2023-12-02T18:52:29.490Z,43.92
2023-12-02T18:54:55.826Z,50.38
2023-12-02T18:57:24.506Z,50.03
2023-12-02T18:59:50.982Z,41.60
2023-12-02T19:02:17.420Z,41.47
2023-12-02T19:04:43.885Z,41.20
2023-12-02T19:07:12.567Z,42.92
2023-12-02T19:09:39.091Z,43.50
2023-12-02T19:12:06.391Z,53.63
2023-12-02T19:14:33.446Z,50.92
2023-12-02T19:16:59.850Z,52.70
2023-12-02T19:19:26.789Z,52.88
2023-12-02T19:21:53.174Z,51.28
2023-12-02T19:24:19.705Z,46.53
2023-12-02T19:26:46.127Z,39.35
2023-12-02T19:29:14.981Z,40.35
2023-12-02T19:31:42.509Z,38.63
2023-12-02T19:34:09.701Z,40.08
2023-12-02T19:36:38.251Z,44.75
2023-12-02T19:39:04.964Z,41.70
2023-12-02T19:41:31.384Z,39.35
2023-12-02T19:43:57.787Z,41.58
2023-12-02T19:46:24.178Z,36.88
2023-12-02T19:48:51.298Z,37.10
2023-12-02T19:51:17.786Z,35.65
2023-12-02T19:53:44.147Z,39.35
2023-12-02T19:56:14.006Z,37.80
2023-12-02T19:58:41.886Z,41.55
2023-12-02T20:01:10.489Z,34.85
2023-12-02T20:03:37.027Z,30.95
2023-12-02T20:06:04.600Z,31.75
2023-12-02T20:08:31.654Z,29.40
2023-12-02T20:10:58.034Z,29.20
2023-12-02T20:13:24.440Z,37.28
2023-12-02T20:15:50.798Z,42.13
2023-12-02T20:18:17.290Z,33.17
2023-12-02T20:20:45.138Z,31.88
2023-12-02T20:23:15.560Z,32.65
2023-12-02T20:25:41.995Z,29.60
2023-12-02T20:28:08.426Z,27.95
2023-12-02T20:30:35.033Z,30.98
2023-12-02T20:33:01.450Z,31.52
2023-12-02T20:35:27.820Z,30.02
2023-12-02T20:37:54.208Z,26.20
2023-12-02T20:40:21.440Z,30.17
2023-12-02T20:42:47.970Z,26.50
2023-12-02T20:45:14.621Z,25.88
2023-12-02T20:47:41.111Z,25.83
2023-12-02T20:50:08.191Z,26.27
2023-12-02T20:52:34.649Z,25.05
2023-12-02T20:55:01.144Z,21.77
2023-12-02T20:57:28.307Z,19.80
2023-12-02T20:59:54.733Z,23.73
2023-12-02T21:02:21.830Z,22.33
2023-12-02T21:04:48.248Z,23.05
2023-12-02T21:07:14.656Z,23.17
2023-12-02T21:09:41.187Z,19.30
2023-12-02T21:12:08.099Z,26.80
2023-12-02T21:14:35.155Z,24.08
2023-12-02T21:17:01.526Z,23.55
2023-12-02T21:19:28.003Z,38.50
2023-12-02T21:21:54.406Z,24.98
2023-12-02T21:24:20.892Z,22.40
2023-12-02T21:26:47.274Z,25.30
2023-12-02T21:29:13.679Z,42.92
2023-12-02T21:31:40.944Z,33.60
2023-12-02T21:34:09.135Z,41.40
2023-12-02T21:36:35.744Z,23.30
2023-12-02T21:39:02.163Z,23.33
2023-12-02T21:41:28.554Z,23.88
2023-12-02T21:43:57.552Z,22.88
2023-12-02T21:46:27.237Z,22.77
2023-12-02T21:48:57.984Z,22.98
2023-12-02T21:51:27.519Z,23.77
2023-12-02T21:53:57.976Z,21.48
2023-12-02T21:56:24.384Z,23.20
2023-12-02T21:59:06.168Z,24.40
2023-12-02T22:01:35.670Z,25.35
2023-12-02T22:04:03.856Z,21.50
2023-12-02T22:06:43.068Z,21.52
2023-12-02T22:09:09.923Z,20.63
2023-12-02T22:11:39.508Z,19.92
2023-12-02T22:14:16.975Z,23.23
2023-12-02T22:16:43.317Z,21.55
2023-12-02T22:19:10.709Z,22.58
2023-12-02T22:21:37.233Z,21.05
2023-12-02T22:24:04.335Z,22.25
2023-12-02T22:26:32.454Z,22.10
2023-12-02T22:29:03.693Z,24.60
2023-12-02T22:31:30.382Z,23.00
2023-12-02T22:33:56.916Z,24.10
2023-12-02T22:36:24.110Z,23.45
2023-12-02T22:38:51.028Z,21.90
2023-12-02T22:41:17.479Z,23.05
2023-12-02T22:43:46.047Z,25.38
2023-12-02T22:46:14.241Z,22.45
2023-12-02T22:48:43.566Z,23.33
2023-12-02T22:51:15.298Z,21.85
2023-12-02T22:53:42.663Z,23.73
2023-12-02T22:56:10.045Z,19.42
2023-12-02T22:58:38.763Z,21.45
2023-12-02T23:01:08.415Z,22.23
2023-12-02T23:03:38.439Z,21.10
2023-12-02T23:06:05.357Z,23.58
2023-12-02T23:08:32.722Z,23.08
2023-12-02T23:10:59.898Z,22.90
2023-12-02T23:13:51.149Z,22.40
2023-12-02T23:16:36.590Z,24.52
2023-12-02T23:19:04.996Z,24.98
2023-12-02T23:21:31.577Z,23.63
2023-12-02T23:23:59.113Z,22.05
2023-12-02T23:26:27.526Z,21.02
2023-12-02T23:28:55.577Z,20.35
2023-12-02T23:31:22.866Z,20.33
2023-12-02T23:33:50.346Z,18.73
2023-12-02T23:36:16.856Z,20.27
2023-12-02T23:38:43.306Z,19.10
2023-12-02T23:41:12.139Z,21.10
2023-12-02T23:43:41.331Z,22.13
2023-12-02T23:46:07.759Z,20.33
2023-12-02T23:48:34.333Z,20.10
2023-12-02T23:51:01.067Z,18.73
2023-12-02T23:53:27.548Z,19.90
2023-12-02T23:55:54.100Z,19.13
2023-12-02T23:58:20.757Z,20.25
